createdAt,value
2024-02-16T00:02:02.971Z,99527.50
2024-02-16T00:04:29.855Z,99509.47
2024-02-16T00:06:56.849Z,99528.13
2024-02-16T00:09:23.826Z,99549.47
2024-02-16T00:11:52.131Z,99532.63
2024-02-16T00:14:19.031Z,99614.53
2024-02-16T00:16:45.839Z,99539.81
2024-02-16T00:19:12.850Z,99566.03
2024-02-16T00:21:43.262Z,99554.13
2024-02-16T00:24:10.972Z,99553.00
2024-02-16T00:26:38.411Z,99544.19
2024-02-16T00:29:05.865Z,99537.47
2024-02-16T00:31:32.867Z,99536.88
2024-02-16T00:33:59.971Z,99521.16
2024-02-16T00:36:31.833Z,99514.72
2024-02-16T00:38:59.644Z,99555.50
2024-02-16T00:41:27.307Z,99542.03
2024-02-16T00:43:54.232Z,99544.63
2024-02-16T00:46:21.124Z,99570.56
2024-02-16T00:48:48.544Z,99557.66
2024-02-16T00:51:15.530Z,99551.66
2024-02-16T00:53:42.704Z,99552.63
2024-02-16T00:56:10.112Z,99549.06
2024-02-16T00:58:37.727Z,99546.06
2024-02-16T01:01:05.724Z,99547.94
2024-02-16T01:03:32.901Z,99542.22
2024-02-16T01:06:00.001Z,99534.06
2024-02-16T01:08:28.572Z,99521.78
2024-02-16T01:10:55.577Z,99550.06
2024-02-16T01:13:22.519Z,99553.09
2024-02-16T01:15:49.544Z,99542.34
2024-02-16T01:18:16.937Z,99537.78
2024-02-16T01:20:44.056Z,99536.22
2024-02-16T01:23:10.791Z,99522.75
2024-02-16T01:25:37.587Z,99521.63
2024-02-16T01:28:04.599Z,99510.88
2024-02-16T01:30:31.444Z,99514.19
2024-02-16T01:32:58.404Z,99509.44
2024-02-16T01:35:25.191Z,99497.28
2024-02-16T01:37:51.914Z,99493.75
2024-02-16T01:40:19.060Z,99493.38
2024-02-16T01:42:45.977Z,99477.66
2024-02-16T01:45:16.747Z,99486.53
2024-02-16T01:47:45.372Z,99483.88
2024-02-16T01:50:18.942Z,99526.34
2024-02-16T01:52:47.832Z,99513.47
2024-02-16T01:55:16.015Z,99493.88
2024-02-16T01:57:47.217Z,99493.88
2024-02-16T02:00:16.478Z,99483.97
2024-02-16T02:02:46.929Z,99471.69
2024-02-16T02:05:14.379Z,99461.66
2024-02-16T02:07:41.215Z,99449.47
2024-02-16T02:10:08.491Z,99445.66
2024-02-16T02:12:35.299Z,99442.94
2024-02-16T02:15:02.186Z,99435.19
2024-02-16T02:17:29.234Z,99440.09
2024-02-16T02:19:56.923Z,99434.34
2024-02-16T02:22:23.832Z,99435.50
2024-02-16T02:24:50.554Z,99441.66
2024-02-16T02:27:18.042Z,99438.78
2024-02-16T02:29:45.599Z,99455.25
2024-02-16T02:32:13.238Z,99451.25
2024-02-16T02:34:40.851Z,99426.63
2024-02-16T02:37:07.859Z,99423.66
2024-02-16T02:39:34.777Z,99427.06
2024-02-16T02:42:01.898Z,99416.75
2024-02-16T02:44:28.804Z,99428.50
2024-02-16T02:46:55.635Z,99406.06
2024-02-16T02:49:22.511Z,99402.63
2024-02-16T02:51:49.316Z,99413.34
2024-02-16T02:54:16.168Z,99406.94
2024-02-16T02:56:43.618Z,99413.63
2024-02-16T02:59:11.785Z,99427.81
2024-02-16T03:01:38.647Z,99419.97
2024-02-16T03:04:06.018Z,99411.91
2024-02-16T03:06:33.056Z,99430.81
2024-02-16T03:08:59.838Z,99437.72
2024-02-16T03:11:26.993Z,99437.66
2024-02-16T03:13:54.293Z,99445.53
2024-02-16T03:16:21.062Z,99452.44
2024-02-16T03:18:48.002Z,99471.56
2024-02-16T03:21:19.063Z,99490.47
2024-02-16T03:23:46.105Z,99486.34
2024-02-16T03:26:19.886Z,99488.03
2024-02-16T03:28:50.674Z,99489.47
2024-02-16T03:31:22.334Z,99488.50
2024-02-16T03:33:50.255Z,99486.78
2024-02-16T03:36:17.545Z,99514.38
2024-02-16T03:38:45.231Z,99500.78
2024-02-16T03:41:18.865Z,99492.75
2024-02-16T03:43:45.731Z,99494.34
2024-02-16T03:46:12.488Z,99485.75
2024-02-16T03:48:40.793Z,99488.91
2024-02-16T03:51:08.104Z,99473.16
2024-02-16T03:53:35.447Z,99490.06
2024-02-16T03:56:02.204Z,99480.59
2024-02-16T03:58:28.886Z,99494.34
2024-02-16T04:00:56.129Z,99498.31
2024-02-16T04:03:22.999Z,99496.19
2024-02-16T04:05:49.874Z,99500.38
2024-02-16T04:08:16.657Z,99514.78
2024-02-16T04:10:43.509Z,99516.97
2024-02-16T04:13:10.277Z,99515.94
2024-02-16T04:15:37.118Z,99516.97
2024-02-16T04:18:04.290Z,99520.94
2024-02-16T04:20:31.188Z,99515.53
2024-02-16T04:22:57.841Z,99528.41
2024-02-16T04:25:24.794Z,99524.81
2024-02-16T04:27:52.039Z,99561.25
2024-02-16T04:30:18.951Z,99554.41
2024-02-16T04:32:45.757Z,99548.97
2024-02-16T04:35:13.399Z,99556.97
2024-02-16T04:37:43.143Z,99571.25
2024-02-16T04:40:13.381Z,99573.25
2024-02-16T04:42:43.801Z,99570.13
2024-02-16T04:45:16.825Z,99574.38
2024-02-16T04:47:43.569Z,99583.97
2024-02-16T04:50:11.060Z,99595.84
2024-02-16T04:52:41.288Z,99600.69
2024-02-16T04:55:08.975Z,99597.81
2024-02-16T04:57:35.799Z,99614.13
2024-02-16T05:00:03.683Z,99621.97
2024-02-16T05:02:30.496Z,99776.72
2024-02-16T05:04:59.220Z,99862.13
2024-02-16T05:07:27.168Z,99894.44
2024-02-16T05:09:59.222Z,99887.75
2024-02-16T05:12:27.472Z,99888.03
2024-02-16T05:14:54.984Z,99885.47
2024-02-16T05:17:23.788Z,99896.06
2024-02-16T05:19:55.217Z,99891.88
2024-02-16T05:22:23.099Z,99914.13
2024-02-16T05:24:50.334Z,99923.66
2024-02-16T05:27:17.731Z,100105.19
2024-02-16T05:29:45.462Z,100099.72
2024-02-16T05:32:13.884Z,100096.63
2024-02-16T05:34:40.798Z,100101.06
2024-02-16T05:37:08.101Z,100095.88
2024-02-16T05:39:44.449Z,100092.84
2024-02-16T05:42:11.456Z,100088.25
2024-02-16T05:44:38.420Z,100087.53
2024-02-16T05:47:05.326Z,100084.44
2024-02-16T05:49:32.307Z,100091.22
2024-02-16T05:52:18.562Z,100048.78
2024-02-16T05:54:49.536Z,100047.22
2024-02-16T05:57:18.118Z,100048.78
2024-02-16T05:59:46.678Z,100043.63
2024-02-16T06:02:13.623Z,100051.28
2024-02-16T06:04:40.839Z,100032.75
2024-02-16T06:07:08.042Z,100044.38
2024-02-16T06:09:36.542Z,100051.03
2024-02-16T06:12:05.719Z,100037.56
2024-02-16T06:14:33.458Z,100042.41
2024-02-16T06:17:00.778Z,100063.63
2024-02-16T06:19:28.583Z,100073.59
2024-02-16T06:21:56.302Z,100081.53
2024-02-16T06:24:26.178Z,100094.72
2024-02-16T06:26:57.089Z,100089.16
2024-02-16T06:29:25.273Z,100009.88
2024-02-16T06:31:53.292Z,100011.09
2024-02-16T06:34:21.144Z,100005.50
2024-02-16T06:36:48.110Z,100003.31
2024-02-16T06:39:19.928Z,100014.78
2024-02-16T06:41:47.926Z,100028.00
2024-02-16T06:44:15.512Z,100028.03
2024-02-16T06:46:45.281Z,100034.16
2024-02-16T06:49:12.042Z,100035.59
2024-02-16T06:51:38.853Z,100046.66
2024-02-16T06:54:05.939Z,100040.31
2024-02-16T06:56:32.946Z,100046.84
2024-02-16T06:58:59.694Z,100052.41
2024-02-16T07:01:28.896Z,100059.41
2024-02-16T07:03:56.209Z,100076.22
2024-02-16T07:06:23.089Z,100073.09
2024-02-16T07:08:49.976Z,100077.22
2024-02-16T07:11:16.803Z,100084.09
2024-02-16T07:13:54.903Z,100108.28
2024-02-16T07:16:21.914Z,100242.84
2024-02-16T07:18:48.748Z,100251.50
2024-02-16T07:21:15.707Z,100263.72
2024-02-16T07:23:42.466Z,100260.41
2024-02-16T07:26:09.282Z,100270.13
2024-02-16T07:28:37.185Z,100275.06
2024-02-16T07:31:04.496Z,100295.31
2024-02-16T07:33:31.951Z,100298.91
2024-02-16T07:35:59.190Z,100298.16
2024-02-16T07:38:26.096Z,100316.19
2024-02-16T07:40:52.860Z,100328.63
2024-02-16T07:43:20.089Z,100336.81
2024-02-16T07:45:47.330Z,100349.00
2024-02-16T07:48:14.570Z,100342.34
2024-02-16T07:50:41.528Z,100360.84
2024-02-16T07:53:08.370Z,100380.84
2024-02-16T07:55:35.137Z,100383.47
2024-02-16T07:58:01.916Z,100402.84
2024-02-16T08:00:29.839Z,100401.00
2024-02-16T08:02:56.796Z,100407.78
2024-02-16T08:05:24.598Z,100413.84
2024-02-16T08:07:51.544Z,100416.91
2024-02-16T08:10:24.255Z,100432.00
2024-02-16T08:12:51.923Z,100448.28
2024-02-16T08:15:24.526Z,100464.34
2024-02-16T08:17:55.395Z,100471.66
2024-02-16T08:20:22.578Z,100490.19
2024-02-16T08:22:49.631Z,100509.72
2024-02-16T08:25:16.458Z,100511.06
2024-02-16T08:27:43.805Z,100517.66
2024-02-16T08:30:11.355Z,100535.53
2024-02-16T08:32:38.485Z,100556.53
2024-02-16T08:35:05.740Z,100559.06
2024-02-16T08:37:32.704Z,100582.06
2024-02-16T08:39:59.656Z,100596.03
2024-02-16T08:42:26.459Z,100603.34
2024-02-16T08:44:53.275Z,100620.66
2024-02-16T08:47:20.166Z,100628.97
2024-02-16T08:49:47.268Z,100646.97
2024-02-16T08:52:14.472Z,100670.97
2024-02-16T08:54:41.713Z,100685.94
2024-02-16T08:57:08.703Z,100704.91
2024-02-16T08:59:35.692Z,100726.44
2024-02-16T09:02:02.793Z,100727.69
2024-02-16T09:04:30.181Z,100741.53
2024-02-16T09:06:57.091Z,100742.28
2024-02-16T09:09:24.303Z,100762.81
2024-02-16T09:11:51.215Z,100770.59
2024-02-16T09:14:18.099Z,100782.94
2024-02-16T09:16:44.860Z,100795.34
2024-02-16T09:19:11.657Z,100807.41
2024-02-16T09:21:38.428Z,100834.81
2024-02-16T09:24:11.429Z,100842.59
2024-02-16T09:26:38.397Z,100855.22
2024-02-16T09:29:05.110Z,100876.38
2024-02-16T09:31:31.808Z,100886.03
2024-02-16T09:33:58.661Z,100896.72
2024-02-16T09:36:25.998Z,100929.22
2024-02-16T09:38:52.909Z,100950.94
2024-02-16T09:41:20.133Z,100962.06
2024-02-16T09:43:47.654Z,100970.56
2024-02-16T09:46:16.438Z,100980.56
2024-02-16T09:48:49.550Z,101000.47
2024-02-16T09:51:17.436Z,101014.94
2024-02-16T09:53:44.357Z,101007.59
2024-02-16T09:56:10.998Z,101035.88
2024-02-16T09:58:37.738Z,101034.81
2024-02-16T10:01:05.387Z,101045.59
2024-02-16T10:03:36.335Z,101046.75
2024-02-16T10:06:12.985Z,101057.06
2024-02-16T10:08:53.295Z,101069.88
2024-02-16T10:11:22.398Z,101072.91
2024-02-16T10:13:57.598Z,101087.19
2024-02-16T10:16:24.559Z,101092.66
2024-02-16T10:18:51.604Z,101119.56
2024-02-16T10:21:28.792Z,101132.44
2024-02-16T10:24:09.692Z,101134.81
2024-02-16T10:26:40.763Z,101147.31
2024-02-16T10:29:10.373Z,101151.13
2024-02-16T10:31:38.054Z,101164.66
2024-02-16T10:34:07.649Z,101165.50
2024-02-16T10:36:36.542Z,101203.78
2024-02-16T10:39:06.308Z,101214.44
2024-02-16T10:41:38.946Z,101217.53
2024-02-16T10:44:06.898Z,101232.16
2024-02-16T10:46:35.291Z,101229.13
2024-02-16T10:49:07.384Z,101228.03
2024-02-16T10:51:58.343Z,101248.13
2024-02-16T10:54:30.289Z,101242.13
2024-02-16T10:56:57.195Z,101245.19
2024-02-16T10:59:24.618Z,101255.31
2024-02-16T11:02:01.358Z,101322.09
2024-02-16T11:04:40.756Z,101325.81
2024-02-16T11:07:17.847Z,101318.69
2024-02-16T11:09:46.221Z,101316.50
2024-02-16T11:12:16.407Z,101313.75
2024-02-16T11:14:44.834Z,101319.66
2024-02-16T11:17:13.530Z,101321.25
2024-02-16T11:19:47.345Z,101328.97
2024-02-16T11:22:19.485Z,101335.91
2024-02-16T11:24:51.472Z,101335.50
2024-02-16T11:27:21.343Z,101331.91
2024-02-16T11:29:49.663Z,101333.81
2024-02-16T11:32:16.506Z,101339.56
2024-02-16T11:34:43.630Z,101338.50
2024-02-16T11:37:13.607Z,101339.47
2024-02-16T11:39:42.097Z,101346.28
2024-02-16T11:42:14.243Z,101388.75
2024-02-16T11:44:52.553Z,101380.41
2024-02-16T11:47:28.564Z,101383.34
2024-02-16T11:50:13.012Z,101385.28
2024-02-16T11:52:40.281Z,101387.47
2024-02-16T11:55:12.256Z,101392.72
2024-02-16T11:57:40.110Z,101404.94
2024-02-16T12:00:16.101Z,101407.38
2024-02-16T12:02:42.999Z,101407.97
2024-02-16T12:05:10.352Z,101407.66
2024-02-16T12:07:43.316Z,101408.94
2024-02-16T12:10:12.325Z,101360.13
2024-02-16T12:12:39.160Z,101362.63
2024-02-16T12:15:07.080Z,101360.97
2024-02-16T12:17:34.599Z,101353.63
2024-02-16T12:20:01.656Z,101339.25
2024-02-16T12:22:28.567Z,101349.28
2024-02-16T12:24:55.281Z,101361.34
2024-02-16T12:27:22.367Z,101355.47
2024-02-16T12:29:49.225Z,101356.00
2024-02-16T12:32:21.236Z,101360.53
2024-02-16T12:34:48.591Z,101369.53
2024-02-16T12:37:15.519Z,101368.34
2024-02-16T12:39:42.813Z,101356.66
2024-02-16T12:42:10.002Z,101363.78
2024-02-16T12:44:36.916Z,101370.75
2024-02-16T12:47:04.193Z,101376.31
2024-02-16T12:49:31.420Z,101378.66
2024-02-16T12:51:58.346Z,101378.75
2024-02-16T12:54:25.236Z,101389.03
2024-02-16T12:56:52.836Z,101383.94
2024-02-16T12:59:19.738Z,101388.94
2024-02-16T13:01:47.616Z,101373.53
2024-02-16T13:04:22.062Z,101384.31
2024-02-16T13:06:50.566Z,101384.13
2024-02-16T13:09:21.111Z,101383.88
2024-02-16T13:11:55.393Z,101378.47
2024-02-16T13:14:23.012Z,101383.69
2024-02-16T13:16:49.819Z,101377.47
2024-02-16T13:19:19.268Z,101385.19
2024-02-16T13:21:46.411Z,101384.31
2024-02-16T13:24:13.269Z,101379.31
2024-02-16T13:26:41.120Z,101389.34
2024-02-16T13:29:07.786Z,101394.28
2024-02-16T13:31:34.874Z,101392.78
2024-02-16T13:34:02.268Z,101398.84
2024-02-16T13:36:29.234Z,101394.22
2024-02-16T13:38:56.090Z,101393.56
2024-02-16T13:41:22.932Z,101388.00
2024-02-16T13:43:49.791Z,101377.53
2024-02-16T13:46:16.589Z,101386.88
2024-02-16T13:48:44.092Z,101388.44
2024-02-16T13:51:11.015Z,101394.56
2024-02-16T13:53:38.272Z,101406.19
2024-02-16T13:56:07.031Z,101406.84
2024-02-16T13:58:35.755Z,101412.50
2024-02-16T14:01:04.717Z,101414.81
2024-02-16T14:03:32.208Z,101417.22
2024-02-16T14:06:00.620Z,101424.09
2024-02-16T14:08:28.117Z,101427.16
2024-02-16T14:10:55.006Z,101422.69
2024-02-16T14:13:22.650Z,101431.75
2024-02-16T14:15:49.742Z,101442.88
2024-02-16T14:18:22.394Z,101434.34
2024-02-16T14:20:56.850Z,101445.63
2024-02-16T14:23:23.593Z,101448.22
2024-02-16T14:25:50.531Z,101444.72
2024-02-16T14:28:17.240Z,101452.13
2024-02-16T14:30:44.145Z,101451.72
2024-02-16T14:33:11.634Z,101449.22
2024-02-16T14:35:38.917Z,101449.22
2024-02-16T14:38:06.463Z,101450.75
2024-02-16T14:40:34.529Z,101452.38
2024-02-16T14:43:02.629Z,101457.16
2024-02-16T14:45:29.551Z,101458.91
2024-02-16T14:47:56.702Z,101463.56
2024-02-16T14:50:23.612Z,101457.22
2024-02-16T14:52:50.515Z,101462.31
2024-02-16T14:55:17.799Z,101463.19
2024-02-16T14:57:48.130Z,101466.31
2024-02-16T15:00:15.465Z,101469.47
2024-02-16T15:02:43.905Z,101473.59
2024-02-16T15:05:11.029Z,101473.25
2024-02-16T15:07:37.815Z,101457.25
2024-02-16T15:10:05.052Z,101475.72
2024-02-16T15:12:34.884Z,101544.97
2024-02-16T15:15:01.790Z,101551.38
2024-02-16T15:17:28.842Z,101539.03
2024-02-16T15:19:56.057Z,101535.53
2024-02-16T15:22:24.031Z,101542.44
2024-02-16T15:24:51.140Z,101533.03
2024-02-16T15:27:18.158Z,101525.22
2024-02-16T15:29:45.971Z,101511.75
2024-02-16T15:32:12.789Z,101428.75
2024-02-16T15:34:40.459Z,101444.47
2024-02-16T15:37:07.493Z,101438.38
2024-02-16T15:39:34.412Z,101454.00
2024-02-16T15:42:01.433Z,101450.41
2024-02-16T15:44:28.250Z,101448.84
2024-02-16T15:46:56.172Z,101464.66
2024-02-16T15:49:23.149Z,101471.34
2024-02-16T15:51:50.180Z,101467.75
2024-02-16T15:54:17.068Z,101467.16
2024-02-16T15:56:43.854Z,101462.88
2024-02-16T15:59:10.880Z,101462.09
2024-02-16T16:01:38.389Z,101452.59
2024-02-16T16:04:05.680Z,101449.66
2024-02-16T16:06:32.642Z,101449.84
2024-02-16T16:08:59.576Z,101461.66
2024-02-16T16:11:26.456Z,101465.41
2024-02-16T16:13:53.287Z,101455.53
2024-02-16T16:16:20.069Z,101446.00
2024-02-16T16:18:47.628Z,101442.25
2024-02-16T16:21:14.441Z,101440.50
2024-02-16T16:23:41.314Z,101452.16
2024-02-16T16:26:08.899Z,101449.28
2024-02-16T16:28:35.789Z,101414.09
2024-02-16T16:31:02.635Z,101413.41
2024-02-16T16:33:29.859Z,101421.44
2024-02-16T16:35:56.962Z,101420.59
2024-02-16T16:38:24.103Z,101426.09
2024-02-16T16:40:50.908Z,101427.22
2024-02-16T16:43:19.300Z,101427.22
2024-02-16T16:45:46.133Z,101424.97
2024-02-16T16:48:13.317Z,101422.19
2024-02-16T16:50:41.199Z,101412.25
2024-02-16T16:53:08.027Z,101407.97
2024-02-16T16:55:34.869Z,101407.91
2024-02-16T16:58:01.581Z,101394.53
2024-02-16T17:00:28.731Z,101236.72
2024-02-16T17:02:55.793Z,101239.81
2024-02-16T17:05:22.644Z,101230.84
2024-02-16T17:07:49.839Z,101202.06
2024-02-16T17:10:17.168Z,101197.72
2024-02-16T17:12:45.749Z,101198.09
2024-02-16T17:15:19.798Z,101203.91
2024-02-16T17:17:54.018Z,101198.94
2024-02-16T17:20:26.324Z,101195.06
2024-02-16T17:22:54.900Z,101186.75
2024-02-16T17:25:23.510Z,101180.34
2024-02-16T17:27:51.160Z,101180.47
2024-02-16T17:30:21.156Z,101178.59
2024-02-16T17:32:52.845Z,101168.91
2024-02-16T17:35:20.387Z,101158.78
2024-02-16T17:37:47.462Z,101147.22
2024-02-16T17:40:15.047Z,101125.94
2024-02-16T17:42:42.236Z,101115.84
2024-02-16T17:45:10.096Z,101082.34
2024-02-16T17:47:38.990Z,101055.03
2024-02-16T17:50:07.318Z,101041.47
2024-02-16T17:52:34.276Z,101029.97
2024-02-16T17:55:05.450Z,101023.78
2024-02-16T17:57:35.186Z,101004.47
2024-02-16T18:00:02.166Z,100989.38
2024-02-16T18:02:39.070Z,100993.28
2024-02-16T18:05:08.678Z,100987.28
2024-02-16T18:07:35.563Z,100981.94
2024-02-16T18:10:05.860Z,100984.97
2024-02-16T18:12:33.970Z,100971.97
2024-02-16T18:15:01.042Z,100964.44
2024-02-16T18:17:27.936Z,100961.75
2024-02-16T18:19:56.023Z,100952.63
2024-02-16T18:22:23.377Z,100925.75
2024-02-16T18:24:50.285Z,100924.09
2024-02-16T18:27:18.476Z,100900.16
2024-02-16T18:29:45.733Z,100880.63
2024-02-16T18:32:13.480Z,100879.75
2024-02-16T18:34:41.088Z,100879.19
2024-02-16T18:37:08.176Z,100885.69
2024-02-16T18:39:35.101Z,100883.19
2024-02-16T18:42:02.330Z,100876.63
2024-02-16T18:44:29.327Z,100870.03
2024-02-16T18:46:56.881Z,100871.22
2024-02-16T18:49:24.092Z,100865.03
2024-02-16T18:51:51.170Z,100864.44
2024-02-16T18:54:18.199Z,100869.41
2024-02-16T18:57:01.916Z,100869.31
2024-02-16T18:59:29.584Z,100871.94
2024-02-16T19:02:03.077Z,100863.69
2024-02-16T19:04:31.207Z,100864.88
2024-02-16T19:06:58.736Z,100858.78
2024-02-16T19:09:26.166Z,100860.91
2024-02-16T19:11:56.678Z,100859.16
2024-02-16T19:14:25.257Z,100848.53
2024-02-16T19:16:53.385Z,100845.13
2024-02-16T19:19:20.594Z,100846.31
2024-02-16T19:21:55.256Z,100836.56
2024-02-16T19:24:29.172Z,100824.19
2024-02-16T19:27:04.754Z,100821.00
2024-02-16T19:29:31.478Z,100817.03
2024-02-16T19:31:58.277Z,100809.88
2024-02-16T19:34:26.358Z,100804.75
2024-02-16T19:36:53.339Z,100805.53
2024-02-16T19:39:20.789Z,100800.09
2024-02-16T19:41:48.743Z,100799.06
2024-02-16T19:44:22.201Z,100797.41
2024-02-16T19:46:50.053Z,100800.78
2024-02-16T19:49:16.934Z,100791.41
2024-02-16T19:51:43.838Z,100796.16
2024-02-16T19:54:10.908Z,100796.34
2024-02-16T19:56:37.638Z,100803.13
2024-02-16T19:59:04.369Z,100799.00
2024-02-16T20:01:31.258Z,100797.25
2024-02-16T20:03:58.322Z,100800.16
2024-02-16T20:06:29.560Z,100802.50
2024-02-16T20:08:56.997Z,100806.94
2024-02-16T20:11:24.089Z,100818.91
2024-02-16T20:13:52.185Z,100819.31
2024-02-16T20:16:19.282Z,100811.06
2024-02-16T20:18:46.662Z,100818.03
2024-02-16T20:21:13.583Z,100829.91
2024-02-16T20:23:40.536Z,100825.19
2024-02-16T20:26:07.536Z,100829.13
2024-02-16T20:28:34.244Z,100823.53
2024-02-16T20:31:05.597Z,100820.53
2024-02-16T20:33:33.199Z,100815.59
2024-02-16T20:36:00.124Z,100807.88
2024-02-16T20:38:26.978Z,100809.53
2024-02-16T20:40:53.664Z,100542.63
2024-02-16T20:43:20.431Z,100539.16
2024-02-16T20:45:47.211Z,100528.81
2024-02-16T20:48:14.122Z,100529.06
2024-02-16T20:50:41.030Z,100524.00
2024-02-16T20:53:07.836Z,100523.13
2024-02-16T20:55:34.966Z,100517.09
2024-02-16T20:58:01.819Z,100524.56
2024-02-16T21:00:28.622Z,100330.59
2024-02-16T21:02:55.417Z,100326.25
2024-02-16T21:05:25.248Z,100321.41
2024-02-16T21:07:57.816Z,100278.25
2024-02-16T21:10:24.580Z,100298.03
2024-02-16T21:12:51.478Z,100256.41
2024-02-16T21:15:18.512Z,100275.94
2024-02-16T21:17:45.893Z,100241.69
2024-02-16T21:20:15.568Z,100241.91
2024-02-16T21:22:42.363Z,100264.16
2024-02-16T21:25:09.484Z,100231.59
2024-02-16T21:27:36.316Z,100210.50
2024-02-16T21:30:03.367Z,100156.94
2024-02-16T21:32:31.130Z,100081.06
2024-02-16T21:34:58.647Z,100100.38
2024-02-16T21:37:25.606Z,100186.38
2024-02-16T21:39:52.570Z,100161.53
2024-02-16T21:42:19.466Z,100038.13
2024-02-16T21:44:46.252Z,100059.97
2024-02-16T21:47:14.629Z,100046.34
2024-02-16T21:49:41.887Z,100042.00
2024-02-16T21:52:08.799Z,100085.94
2024-02-16T21:54:36.784Z,100048.09
2024-02-16T21:57:04.119Z,100072.41
2024-02-16T21:59:30.884Z,100046.22
2024-02-16T22:01:57.680Z,100030.75
2024-02-16T22:04:26.142Z,100062.59
2024-02-16T22:06:54.639Z,100061.59
2024-02-16T22:09:21.908Z,100027.44
2024-02-16T22:11:48.804Z,100033.91
2024-02-16T22:14:15.995Z,100066.34
2024-02-16T22:16:42.769Z,100022.72
2024-02-16T22:19:09.876Z,100010.69
2024-02-16T22:21:42.461Z,100022.59
2024-02-16T22:24:11.620Z,100039.56
2024-02-16T22:26:41.306Z,100035.13
2024-02-16T22:29:08.537Z,100019.56
2024-02-16T22:31:41.304Z,100029.38
2024-02-16T22:34:10.789Z,100022.13
2024-02-16T22:36:37.758Z,100011.06
2024-02-16T22:39:05.575Z,100007.41
2024-02-16T22:41:32.668Z,100018.22
2024-02-16T22:43:59.924Z,100005.16
2024-02-16T22:46:26.701Z,100026.31
2024-02-16T22:48:53.649Z,100003.44
2024-02-16T22:51:20.625Z,100031.44
2024-02-16T22:53:47.682Z,99969.38
2024-02-16T22:56:14.459Z,99973.06
2024-02-16T22:58:41.270Z,99973.06
2024-02-16T23:01:08.222Z,99974.16
2024-02-16T23:03:35.274Z,99973.16
2024-02-16T23:06:04.393Z,99975.03
2024-02-16T23:08:31.716Z,99924.19
2024-02-16T23:10:59.009Z,99892.41
2024-02-16T23:13:26.851Z,99879.66
2024-02-16T23:15:53.841Z,99878.38
2024-02-16T23:18:21.454Z,99928.06
2024-02-16T23:20:48.705Z,99948.03
2024-02-16T23:23:16.321Z,99983.19
2024-02-16T23:25:44.644Z,99897.50
2024-02-16T23:28:16.234Z,99934.34
2024-02-16T23:30:43.644Z,99928.19
2024-02-16T23:33:14.078Z,99912.00
2024-02-16T23:35:41.272Z,99920.94
2024-02-16T23:38:08.087Z,99931.78
2024-02-16T23:40:34.985Z,99952.72
2024-02-16T23:43:01.793Z,99959.03
2024-02-16T23:45:36.083Z,99948.00
2024-02-16T23:48:03.180Z,99950.78
2024-02-16T23:50:31.767Z,99936.75
2024-02-16T23:52:59.178Z,99960.22
2024-02-16T23:55:26.553Z,99978.00
2024-02-16T23:57:54.464Z,99978.59
